createdAt,value
2023-11-16T00:00:23.757Z,7.97
2023-11-16T00:03:32.417Z,8.21
2023-11-16T00:06:20.100Z,8.36
2023-11-16T00:09:08.384Z,8.53
2023-11-16T00:11:56.607Z,8.67
2023-11-16T00:14:44.305Z,8.84
2023-11-16T00:17:34.276Z,8.58
2023-11-16T00:20:22.539Z,7.39
2023-11-16T00:23:10.361Z,6.39
2023-11-16T00:26:00.081Z,6.00
2023-11-16T00:28:49.546Z,6.90
2023-11-16T00:31:39.739Z,7.66
2023-11-16T00:34:27.697Z,8.13
2023-11-16T00:37:15.150Z,8.43
2023-11-16T00:40:03.298Z,8.68
2023-11-16T00:42:51.941Z,8.86
2023-11-16T00:45:39.800Z,8.97
2023-11-16T00:48:27.942Z,8.71
2023-11-16T00:51:15.958Z,7.51
2023-11-16T00:54:03.983Z,6.46
2023-11-16T00:56:52.041Z,5.98
2023-11-16T00:59:40.591Z,6.74
2023-11-16T01:02:28.614Z,7.45
2023-11-16T01:05:19.046Z,7.86
2023-11-16T01:08:10.737Z,8.08
2023-11-16T01:10:58.869Z,8.26
2023-11-16T01:13:48.267Z,8.41
2023-11-16T01:16:42.028Z,8.52
2023-11-16T01:19:29.910Z,8.25
2023-11-16T01:22:18.143Z,7.07
2023-11-16T01:25:16.073Z,6.05
2023-11-16T01:28:05.132Z,5.24
2023-11-16T01:30:53.202Z,4.94
2023-11-16T01:33:43.572Z,5.83
2023-11-16T01:36:31.483Z,6.64
2023-11-16T01:39:19.349Z,7.12
2023-11-16T01:42:10.810Z,7.42
2023-11-16T01:45:00.357Z,7.65
2023-11-16T01:47:48.218Z,7.82
2023-11-16T01:50:39.656Z,7.96
2023-11-16T01:53:28.997Z,8.08
2023-11-16T01:56:17.608Z,8.14
2023-11-16T01:59:07.445Z,8.21
2023-11-16T02:01:56.294Z,7.95
2023-11-16T02:04:44.516Z,6.74
2023-11-16T02:07:32.463Z,5.74
2023-11-16T02:10:20.499Z,5.36
2023-11-16T02:13:24.818Z,6.15
2023-11-16T02:16:14.751Z,6.91
2023-11-16T02:19:21.423Z,7.27
2023-11-16T02:22:09.641Z,7.60
2023-11-16T02:24:57.043Z,7.81
2023-11-16T02:27:45.782Z,7.96
2023-11-16T02:30:33.661Z,7.67
2023-11-16T02:33:21.507Z,6.47
2023-11-16T02:36:12.085Z,5.46
2023-11-16T02:39:00.322Z,5.11
2023-11-16T02:41:49.098Z,5.96
2023-11-16T02:44:37.642Z,6.70
2023-11-16T02:47:25.998Z,7.19
2023-11-16T02:50:15.589Z,7.52
2023-11-16T02:53:04.496Z,7.75
2023-11-16T02:55:52.386Z,7.94
2023-11-16T02:58:45.223Z,8.08
2023-11-16T03:01:34.567Z,7.61
2023-11-16T03:04:22.481Z,6.33
2023-11-16T03:07:17.010Z,5.37
2023-11-16T03:10:14.294Z,5.02
2023-11-16T03:13:04.969Z,5.82
2023-11-16T03:15:52.795Z,6.51
2023-11-16T03:18:40.708Z,6.91
2023-11-16T03:21:28.450Z,7.17
2023-11-16T03:24:16.617Z,7.37
2023-11-16T03:27:04.880Z,7.57
2023-11-16T03:29:59.211Z,7.73
2023-11-16T03:32:47.795Z,7.85
2023-11-16T03:35:35.544Z,7.94
2023-11-16T03:38:23.236Z,7.64
2023-11-16T03:41:13.367Z,6.44
2023-11-16T03:44:01.292Z,5.40
2023-11-16T03:46:48.823Z,4.88
2023-11-16T03:49:36.515Z,5.53
2023-11-16T03:52:24.324Z,6.35
2023-11-16T03:55:12.387Z,6.93
2023-11-16T03:58:00.057Z,7.29
2023-11-16T04:00:49.411Z,7.56
2023-11-16T04:03:38.054Z,7.46
2023-11-16T04:06:26.090Z,6.27
2023-11-16T04:09:14.160Z,5.24
2023-11-16T04:12:01.718Z,4.81
2023-11-16T04:14:49.558Z,5.56
2023-11-16T04:17:38.248Z,6.44
2023-11-16T04:20:28.128Z,7.29
2023-11-16T04:23:15.922Z,7.60
2023-11-16T04:26:03.457Z,7.43
2023-11-16T04:28:55.534Z,6.20
2023-11-16T04:31:44.243Z,5.11
2023-11-16T04:34:34.348Z,4.74
2023-11-16T04:37:23.497Z,5.70
2023-11-16T04:40:15.114Z,6.58
2023-11-16T04:43:03.934Z,7.21
2023-11-16T04:45:53.682Z,7.60
2023-11-16T04:48:45.337Z,7.41
2023-11-16T04:51:33.474Z,6.06
2023-11-16T04:54:21.148Z,4.94
2023-11-16T04:57:09.034Z,4.15
2023-11-16T04:59:57.177Z,3.94
2023-11-16T05:02:44.781Z,5.03
2023-11-16T05:05:36.635Z,5.95
2023-11-16T05:08:26.601Z,6.55
2023-11-16T05:11:25.068Z,6.87
2023-11-16T05:14:12.842Z,7.09
2023-11-16T05:17:00.511Z,7.22
2023-11-16T05:19:49.011Z,7.33
2023-11-16T05:22:36.627Z,7.44
2023-11-16T05:25:24.403Z,7.55
2023-11-16T05:28:13.062Z,7.67
2023-11-16T05:31:00.780Z,7.42
2023-11-16T05:33:48.688Z,6.20
2023-11-16T05:36:37.164Z,5.14
2023-11-16T05:39:25.293Z,4.70
2023-11-16T05:42:13.263Z,5.61
2023-11-16T05:45:00.822Z,6.43
2023-11-16T05:47:51.063Z,6.91
2023-11-16T05:50:39.410Z,7.25
2023-11-16T05:53:27.939Z,7.52
2023-11-16T05:56:15.491Z,7.66
2023-11-16T05:59:03.267Z,7.67
2023-11-16T06:01:51.238Z,6.46
2023-11-16T06:04:39.260Z,5.24
2023-11-16T06:07:26.790Z,4.68
2023-11-16T06:10:18.608Z,5.52
2023-11-16T06:13:08.511Z,6.35
2023-11-16T06:15:56.605Z,6.81
2023-11-16T06:18:44.690Z,7.15
2023-11-16T06:21:32.556Z,7.43
2023-11-16T06:24:20.183Z,7.66
2023-11-16T06:27:09.252Z,7.86
2023-11-16T06:29:57.042Z,7.67
2023-11-16T06:32:45.437Z,6.51
2023-11-16T06:35:33.097Z,5.47
2023-11-16T06:38:22.118Z,4.73
2023-11-16T06:41:11.105Z,4.61
2023-11-16T06:44:00.390Z,5.68
2023-11-16T06:46:48.824Z,6.54
2023-11-16T06:49:39.276Z,7.19
2023-11-16T06:52:28.845Z,7.75
2023-11-16T06:55:18.992Z,8.24
2023-11-16T06:58:08.984Z,8.20
2023-11-16T07:00:57.372Z,7.12
2023-11-16T07:03:48.033Z,6.25
2023-11-16T07:06:35.923Z,5.64
2023-11-16T07:09:28.415Z,5.54
2023-11-16T07:12:22.123Z,6.59
2023-11-16T07:15:11.721Z,7.53
2023-11-16T07:18:01.054Z,8.24
2023-11-16T07:20:48.891Z,8.71
2023-11-16T07:23:37.777Z,9.04
2023-11-16T07:26:26.098Z,9.36
2023-11-16T07:29:13.811Z,9.64
2023-11-16T07:32:02.670Z,9.59
2023-11-16T07:34:50.981Z,8.49
2023-11-16T07:37:40.056Z,7.60
2023-11-16T07:40:28.349Z,7.31
2023-11-16T07:43:17.255Z,8.76
2023-11-16T07:46:05.513Z,10.62
2023-11-16T07:48:53.594Z,10.80
2023-11-16T07:51:42.334Z,9.71
2023-11-16T07:54:31.295Z,8.83
2023-11-16T07:57:23.946Z,8.29
2023-11-16T08:00:14.571Z,8.32
2023-11-16T08:03:21.270Z,9.50
2023-11-16T08:06:14.375Z,10.63
2023-11-16T08:09:02.232Z,11.34
2023-11-16T08:11:55.321Z,11.50
2023-11-16T08:14:43.113Z,10.65
2023-11-16T08:17:31.152Z,9.96
2023-11-16T08:20:25.252Z,9.38
2023-11-16T08:23:13.180Z,9.31
2023-11-16T08:26:00.931Z,10.23
2023-11-16T08:28:50.515Z,10.45
2023-11-16T08:31:38.133Z,9.42
2023-11-16T08:34:29.307Z,8.59
2023-11-16T08:37:17.828Z,8.25
2023-11-16T08:40:09.559Z,9.22
2023-11-16T08:42:58.495Z,10.25
2023-11-16T08:45:49.866Z,9.90
2023-11-16T08:48:40.519Z,9.16
2023-11-16T08:51:29.771Z,8.67
2023-11-16T08:54:18.444Z,8.29
2023-11-16T08:57:06.330Z,8.02
2023-11-16T09:00:21.423Z,7.89
2023-11-16T09:03:09.786Z,8.69
2023-11-16T09:05:59.484Z,10.78
2023-11-16T09:08:52.885Z,13.18
2023-11-16T09:11:42.338Z,15.04
2023-11-16T09:14:34.435Z,16.63
2023-11-16T09:17:24.653Z,17.61
2023-11-16T09:20:14.649Z,18.42
2023-11-16T09:23:05.213Z,19.02
2023-11-16T09:25:53.085Z,19.45
2023-11-16T09:28:41.494Z,20.08
2023-11-16T09:31:30.815Z,20.63
2023-11-16T09:34:18.495Z,20.99
2023-11-16T09:37:05.890Z,21.11
2023-11-16T09:39:53.868Z,21.22
2023-11-16T09:42:45.033Z,21.31
2023-11-16T09:45:32.846Z,21.44
2023-11-16T09:48:22.248Z,21.64
2023-11-16T09:51:10.888Z,21.54
2023-11-16T09:53:59.885Z,21.65
2023-11-16T09:56:50.192Z,21.89
2023-11-16T09:59:44.326Z,22.27
2023-11-16T10:02:34.479Z,22.40
2023-11-16T10:05:28.388Z,22.30
2023-11-16T10:08:16.071Z,21.67
2023-11-16T10:11:06.960Z,20.50
2023-11-16T10:13:55.405Z,20.55
2023-11-16T10:16:44.893Z,21.36
2023-11-16T10:19:32.985Z,22.29
2023-11-16T10:22:21.007Z,22.98
2023-11-16T10:25:12.225Z,22.58
2023-11-16T10:28:01.811Z,20.53
2023-11-16T10:30:55.380Z,18.20
2023-11-16T10:33:46.422Z,16.23
2023-11-16T10:36:35.061Z,14.74
2023-11-16T10:39:28.898Z,13.41
2023-11-16T10:42:19.962Z,12.25
2023-11-16T10:45:17.121Z,11.28
2023-11-16T10:48:05.863Z,10.55
2023-11-16T10:51:00.114Z,10.26
2023-11-16T10:53:53.121Z,10.01
2023-11-16T10:56:45.151Z,9.62
2023-11-16T10:59:34.216Z,9.23
2023-11-16T11:02:24.600Z,8.85
2023-11-16T11:05:13.674Z,8.55
2023-11-16T11:08:03.650Z,8.27
2023-11-16T11:10:54.352Z,8.04
2023-11-16T11:13:44.691Z,7.86
2023-11-16T11:16:32.710Z,7.75
2023-11-16T11:19:32.416Z,7.71
2023-11-16T11:22:20.410Z,7.76
2023-11-16T11:25:08.847Z,7.92
2023-11-16T11:27:58.280Z,7.91
2023-11-16T11:30:55.656Z,7.73
2023-11-16T11:33:44.525Z,7.96
2023-11-16T11:36:32.257Z,10.60
2023-11-16T11:39:24.843Z,10.62
2023-11-16T11:42:14.136Z,9.48
2023-11-16T11:45:02.096Z,8.60
2023-11-16T11:47:55.669Z,8.01
2023-11-16T11:50:44.079Z,7.62
2023-11-16T11:53:35.123Z,7.75
2023-11-16T11:56:23.026Z,10.41
2023-11-16T11:59:11.509Z,11.20
2023-11-16T12:02:10.200Z,9.88
2023-11-16T12:04:59.210Z,8.81
2023-11-16T12:08:01.365Z,8.19
2023-11-16T12:10:49.267Z,7.66
2023-11-16T12:13:39.841Z,7.29
2023-11-16T12:16:29.728Z,7.08
2023-11-16T12:19:23.648Z,8.64
2023-11-16T12:22:13.424Z,10.43
2023-11-16T12:25:02.086Z,9.50
2023-11-16T12:27:49.897Z,8.33
2023-11-16T12:30:39.918Z,7.57
2023-11-16T12:33:29.672Z,7.05
2023-11-16T12:36:33.062Z,7.72
2023-11-16T12:39:21.021Z,9.18
2023-11-16T12:42:10.211Z,9.30
2023-11-16T12:44:58.353Z,8.19
2023-11-16T12:47:46.025Z,7.31
2023-11-16T12:50:34.232Z,7.79
2023-11-16T12:53:21.839Z,8.81
2023-11-16T12:56:10.021Z,8.31
2023-11-16T12:58:58.518Z,7.49
2023-11-16T13:01:46.652Z,8.07
2023-11-16T13:04:35.833Z,8.97
2023-11-16T13:07:24.083Z,9.10
2023-11-16T13:10:12.235Z,8.08
2023-11-16T13:13:00.308Z,7.56
2023-11-16T13:15:50.429Z,8.55
2023-11-16T13:18:38.801Z,9.31
2023-11-16T13:21:26.929Z,9.57
2023-11-16T13:24:14.812Z,8.42
2023-11-16T13:27:05.152Z,7.97
2023-11-16T13:29:55.332Z,8.96
2023-11-16T13:32:45.362Z,9.76
2023-11-16T13:35:33.067Z,9.81
2023-11-16T13:38:20.764Z,8.62
2023-11-16T13:41:12.556Z,8.04
2023-11-16T13:44:02.017Z,9.02
2023-11-16T13:46:49.873Z,9.56
2023-11-16T13:49:37.762Z,8.86
2023-11-16T13:52:25.276Z,7.82
2023-11-16T13:55:14.303Z,8.28
2023-11-16T13:58:01.842Z,9.10
2023-11-16T14:00:49.657Z,9.67
2023-11-16T14:03:38.214Z,8.67
2023-11-16T14:06:26.283Z,7.58
2023-11-16T14:09:15.099Z,7.58
2023-11-16T14:12:02.709Z,8.46
2023-11-16T14:14:50.321Z,9.18
2023-11-16T14:17:40.622Z,9.15
2023-11-16T14:20:29.184Z,7.89
2023-11-16T14:23:24.042Z,7.42
2023-11-16T14:26:13.630Z,8.40
2023-11-16T14:29:02.483Z,9.12
2023-11-16T14:31:52.783Z,9.30
2023-11-16T14:34:41.306Z,8.39
2023-11-16T14:37:30.497Z,7.79
2023-11-16T14:40:19.313Z,8.33
2023-11-16T14:43:08.345Z,9.07
2023-11-16T14:45:56.198Z,9.16
2023-11-16T14:48:44.269Z,9.72
2023-11-16T14:51:32.397Z,9.65
2023-11-16T14:54:20.548Z,8.25
2023-11-16T14:57:10.621Z,8.04
2023-11-16T14:59:59.433Z,8.62
2023-11-16T15:02:48.591Z,9.02
2023-11-16T15:05:38.312Z,9.21
2023-11-16T15:08:26.968Z,9.44
2023-11-16T15:11:15.198Z,9.56
2023-11-16T15:14:04.029Z,9.54
2023-11-16T15:16:55.387Z,9.52
2023-11-16T15:19:43.521Z,9.36
2023-11-16T15:22:31.370Z,9.31
2023-11-16T15:25:20.032Z,9.32
2023-11-16T15:28:09.302Z,9.36
2023-11-16T15:30:57.253Z,9.36
2023-11-16T15:33:45.735Z,9.24
2023-11-16T15:36:33.658Z,9.23
2023-11-16T15:39:22.812Z,9.37
2023-11-16T15:42:10.256Z,9.27
2023-11-16T15:44:58.520Z,9.33
2023-11-16T15:47:47.083Z,9.15
2023-11-16T15:50:34.894Z,9.20
2023-11-16T15:53:22.802Z,9.28
2023-11-16T15:56:11.764Z,9.56
2023-11-16T15:58:59.950Z,9.50
2023-11-16T16:01:48.061Z,9.66
2023-11-16T16:04:38.127Z,9.88
2023-11-16T16:07:25.913Z,9.79
2023-11-16T16:10:13.731Z,8.84
2023-11-16T16:13:01.530Z,8.02
2023-11-16T16:15:50.369Z,8.47
2023-11-16T16:18:38.064Z,8.74
2023-11-16T16:21:25.679Z,8.60
2023-11-16T16:24:13.308Z,8.63
2023-11-16T16:27:08.855Z,8.82
2023-11-16T16:30:00.448Z,8.65
2023-11-16T16:32:48.566Z,8.60
2023-11-16T16:35:39.374Z,8.54
2023-11-16T16:38:27.495Z,8.45
2023-11-16T16:41:15.022Z,8.50
2023-11-16T16:44:03.105Z,8.59
2023-11-16T16:46:52.581Z,8.74
2023-11-16T16:49:43.322Z,8.60
2023-11-16T16:52:32.920Z,8.74
2023-11-16T16:55:22.037Z,8.93
2023-11-16T16:58:10.634Z,8.88
2023-11-16T17:00:59.327Z,8.98
2023-11-16T17:03:47.403Z,8.93
2023-11-16T17:06:35.351Z,8.73
2023-11-16T17:09:23.075Z,8.66
2023-11-16T17:12:11.401Z,8.74
2023-11-16T17:14:59.274Z,8.86
2023-11-16T17:17:47.320Z,8.84
2023-11-16T17:20:35.176Z,8.80
2023-11-16T17:23:22.902Z,8.70
2023-11-16T17:26:11.553Z,8.76
2023-11-16T17:29:00.195Z,8.76
2023-11-16T17:31:48.404Z,8.91
2023-11-16T17:34:36.062Z,8.82
2023-11-16T17:37:23.922Z,8.77
2023-11-16T17:40:15.752Z,9.10
2023-11-16T17:43:04.133Z,9.18
2023-11-16T17:45:54.824Z,8.94
2023-11-16T17:48:43.252Z,8.95
2023-11-16T17:51:32.910Z,8.96
2023-11-16T17:54:20.742Z,8.82
2023-11-16T17:57:08.957Z,8.98
2023-11-16T17:59:57.120Z,8.99
2023-11-16T18:02:46.563Z,9.15
2023-11-16T18:05:37.080Z,9.43
2023-11-16T18:08:27.465Z,9.19
2023-11-16T18:11:15.725Z,9.34
2023-11-16T18:14:05.004Z,9.28
2023-11-16T18:16:52.734Z,9.45
2023-11-16T18:19:40.728Z,9.39
2023-11-16T18:22:29.444Z,9.32
2023-11-16T18:25:17.712Z,9.44
2023-11-16T18:28:07.112Z,9.45
2023-11-16T18:30:56.889Z,9.28
2023-11-16T18:33:46.291Z,9.40
2023-11-16T18:36:34.294Z,9.16
2023-11-16T18:39:22.815Z,9.24
2023-11-16T18:42:16.296Z,9.15
2023-11-16T18:45:05.129Z,9.10
2023-11-16T18:47:53.459Z,9.10
2023-11-16T18:50:43.895Z,9.16
2023-11-16T18:53:38.224Z,9.07
2023-11-16T18:56:26.509Z,9.18
2023-11-16T18:59:15.012Z,9.24
2023-11-16T19:02:02.989Z,9.29
2023-11-16T19:04:52.482Z,9.20
2023-11-16T19:07:44.070Z,9.35
2023-11-16T19:10:34.671Z,9.27
2023-11-16T19:13:22.943Z,9.36
2023-11-16T19:16:11.036Z,9.27
2023-11-16T19:18:58.867Z,9.19
2023-11-16T19:21:47.196Z,9.17
2023-11-16T19:24:35.646Z,9.02
2023-11-16T19:27:28.322Z,9.16
2023-11-16T19:30:16.704Z,9.31
2023-11-16T19:33:05.759Z,9.20
2023-11-16T19:35:53.630Z,9.07
2023-11-16T19:38:41.600Z,9.15
2023-11-16T19:41:30.441Z,9.23
2023-11-16T19:44:18.232Z,9.22
2023-11-16T19:47:06.736Z,9.19
2023-11-16T19:49:56.291Z,9.20
2023-11-16T19:52:44.231Z,9.33
2023-11-16T19:55:32.799Z,9.11
2023-11-16T19:58:20.865Z,9.05
2023-11-16T20:01:09.474Z,8.99
2023-11-16T20:03:57.586Z,9.01
2023-11-16T20:06:47.282Z,9.02
2023-11-16T20:09:36.697Z,9.15
2023-11-16T20:12:24.707Z,9.27
2023-11-16T20:15:14.326Z,9.10
2023-11-16T20:18:04.231Z,9.18
2023-11-16T20:20:55.409Z,9.16
2023-11-16T20:23:49.155Z,9.14
2023-11-16T20:26:36.790Z,9.11
2023-11-16T20:29:24.460Z,9.10
2023-11-16T20:32:13.081Z,9.22
2023-11-16T20:35:00.918Z,9.13
2023-11-16T20:37:49.112Z,9.10
2023-11-16T20:40:36.885Z,9.13
2023-11-16T20:43:25.329Z,9.16
2023-11-16T20:46:13.707Z,9.17
2023-11-16T20:49:01.928Z,9.27
2023-11-16T20:51:50.181Z,9.15
2023-11-16T20:54:39.605Z,9.24
2023-11-16T20:57:27.603Z,9.29
2023-11-16T21:00:27.012Z,9.18
2023-11-16T21:03:15.276Z,9.28
2023-11-16T21:06:03.878Z,9.46
2023-11-16T21:08:52.001Z,9.33
2023-11-16T21:11:40.125Z,9.38
2023-11-16T21:14:30.999Z,9.27
2023-11-16T21:17:20.985Z,9.09
2023-11-16T21:20:13.636Z,9.10
2023-11-16T21:23:02.045Z,9.12
2023-11-16T21:25:50.290Z,9.08
2023-11-16T21:28:40.246Z,9.15
2023-11-16T21:31:28.241Z,9.03
2023-11-16T21:34:17.401Z,8.98
2023-11-16T21:37:07.649Z,9.04
2023-11-16T21:39:55.631Z,9.11
2023-11-16T21:42:45.633Z,8.91
2023-11-16T21:45:33.720Z,8.90
2023-11-16T21:48:21.604Z,8.78
2023-11-16T21:51:09.657Z,8.74
2023-11-16T21:53:57.691Z,8.78
2023-11-16T21:56:45.464Z,8.80
2023-11-16T21:59:33.588Z,8.47
2023-11-16T22:02:21.682Z,8.51
2023-11-16T22:05:14.582Z,8.72
2023-11-16T22:08:02.447Z,8.73
2023-11-16T22:10:50.684Z,8.82
2023-11-16T22:13:38.945Z,8.72
2023-11-16T22:16:27.929Z,8.76
2023-11-16T22:19:16.597Z,8.81
2023-11-16T22:22:05.421Z,8.77
2023-11-16T22:24:53.318Z,8.69
2023-11-16T22:27:43.985Z,8.73
2023-11-16T22:30:33.516Z,8.61
2023-11-16T22:33:22.902Z,8.80
2023-11-16T22:36:12.571Z,8.77
2023-11-16T22:39:00.400Z,8.76
2023-11-16T22:41:51.115Z,8.82
2023-11-16T22:44:39.110Z,8.97
2023-11-16T22:47:26.887Z,9.10
2023-11-16T22:50:18.528Z,8.99
2023-11-16T22:53:06.786Z,8.83
2023-11-16T22:55:54.679Z,8.87
2023-11-16T22:58:42.630Z,8.88
2023-11-16T23:01:32.870Z,8.84
2023-11-16T23:04:20.891Z,8.85
2023-11-16T23:07:12.580Z,8.86
2023-11-16T23:10:01.814Z,8.99
2023-11-16T23:12:51.022Z,8.85
2023-11-16T23:15:44.084Z,8.87
2023-11-16T23:18:32.064Z,8.89
2023-11-16T23:21:33.398Z,9.05
2023-11-16T23:24:25.644Z,9.01
2023-11-16T23:27:14.342Z,9.00
2023-11-16T23:30:01.997Z,9.04
2023-11-16T23:32:49.992Z,9.07
2023-11-16T23:35:37.988Z,9.13
2023-11-16T23:38:25.485Z,9.15
2023-11-16T23:41:14.756Z,9.13
2023-11-16T23:44:02.383Z,9.19
2023-11-16T23:46:50.206Z,9.03
2023-11-16T23:49:38.965Z,8.83
2023-11-16T23:52:26.885Z,8.87
2023-11-16T23:55:14.922Z,8.96
2023-11-16T23:58:03.441Z,8.91
